Time;durP1;ratioP1;P1;durP2;ratioP2;P2;SDS_P1;SDS_P2;PMS_P1;PMS_P2;Temp;Humidity;BMP_temperature;BMP_pressure;BME280_temperature;BME280_humidity;BME280_pressure;Samples;Min_cycle;Max_cycle;Signal;HPM_P1;HPM_P2
2022/01/10 00:01:38;;;;;;;6.10;2.50;;;1.30;99.90;;;;;;4967839;28;20238;-60
2022/01/10 00:04:03;;;;;;;2.00;1.90;;;1.20;99.90;;;;;;4969780;28;20204;-61
2022/01/10 00:06:29;;;;;;;2.80;2.40;;;1.20;99.90;;;;;;4972721;28;20260;-60
2022/01/10 00:08:55;;;;;;;3.07;2.40;;;1.20;99.90;;;;;;4970187;28;20183;-60
2022/01/10 00:11:20;;;;;;;2.50;2.30;;;1.20;99.90;;;;;;4970516;28;20180;-60
2022/01/10 00:13:46;;;;;;;3.10;2.20;;;1.20;99.90;;;;;;4971303;28;20223;-60
2022/01/10 00:16:11;;;;;;;2.30;1.93;;;1.20;99.90;;;;;;4972397;28;20172;-59
2022/01/10 00:18:37;;;;;;;2.80;2.07;;;1.20;99.90;;;;;;4970077;28;20176;-60
2022/01/10 00:21:03;;;;;;;2.13;1.93;;;1.20;99.90;;;;;;4968396;28;20243;-60
2022/01/10 00:23:28;;;;;;;2.63;2.43;;;1.20;99.90;;;;;;4985218;28;20795;-60
2022/01/10 00:25:54;;;;;;;2.40;2.10;;;1.20;99.90;;;;;;4970258;28;20657;-60
2022/01/10 00:28:20;;;;;;;1.80;1.70;;;1.20;99.90;;;;;;4969939;28;20402;-60
2022/01/10 00:30:46;;;;;;;1.93;1.83;;;1.20;99.90;;;;;;4969478;28;20503;-60
2022/01/10 00:33:11;;;;;;;2.03;1.80;;;1.20;99.90;;;;;;4971180;28;20244;-61
2022/01/10 00:35:37;;;;;;;5.70;2.10;;;1.20;99.90;;;;;;4989663;28;20202;-60
2022/01/10 00:38:02;;;;;;;1.87;1.77;;;1.10;99.90;;;;;;4967900;28;20545;-60
2022/01/10 00:40:28;;;;;;;2.60;2.37;;;1.10;99.90;;;;;;4990378;28;20177;-60
2022/01/10 00:42:56;;;;;;;2.10;1.90;;;1.10;99.90;;;;;;4971173;28;20192;-60
2022/01/10 00:45:27;;;;;;;3.93;2.10;;;1.10;99.90;;;;;;4970332;28;20224;-60
2022/01/10 00:47:59;;;;;;;2.07;1.90;;;1.10;99.90;;;;;;4968677;28;20451;-60
2022/01/10 00:50:26;;;;;;;2.67;2.20;;;1.10;99.90;;;;;;4971480;28;20417;-60
2022/01/10 00:52:52;;;;;;;2.10;1.90;;;1.20;99.90;;;;;;4994460;28;20451;-60
2022/01/10 00:55:18;;;;;;;2.63;2.43;;;1.20;99.90;;;;;;4965469;28;20954;-58
2022/01/10 00:57:44;;;;;;;2.20;2.00;;;1.20;99.90;;;;;;4969693;28;20524;-60
2022/01/10 01:00:13;;;;;;;3.53;2.50;;;1.10;99.90;;;;;;4968391;28;20511;-60
2022/01/10 01:02:39;;;;;;;2.50;2.20;;;1.10;99.90;;;;;;4970875;28;20223;-60
2022/01/10 01:05:08;;;;;;;4.50;2.90;;;1.10;99.90;;;;;;4970516;28;21269;-60
2022/01/10 01:07:35;;;;;;;3.90;2.37;;;1.10;99.90;;;;;;4969066;28;20431;-61
2022/01/10 01:11:01;;;;;;;3.53;2.20;;;1.00;99.90;;;;;;4969415;28;20581;-59
2022/01/10 01:12:56;;;;;;;2.93;2.60;;;1.00;99.90;;;;;;4957083;28;20444;-60
2022/01/10 01:15:30;;;;;;;3.73;2.70;;;0.90;99.90;;;;;;4970208;28;20924;-60
2022/01/10 01:18:11;;;;;;;3.90;2.57;;;0.90;99.90;;;;;;4969601;28;20625;-60
2022/01/10 01:26:01;;;;;;;3.50;2.57;;;0.90;99.90;;;;;;4969739;28;20600;-58
2022/01/10 01:28:27;;;;;;;4.50;2.80;;;0.80;99.90;;;;;;4968357;28;20428;-60
2022/01/10 01:30:53;;;;;;;3.23;2.57;;;0.80;99.90;;;;;;4969454;28;20428;-60
2022/01/10 01:33:19;;;;;;;2.53;2.30;;;0.80;99.90;;;;;;4970619;28;20431;-61
2022/01/10 01:35:47;;;;;;;3.90;2.77;;;0.80;99.90;;;;;;4969051;28;20961;-60
2022/01/10 01:38:13;;;;;;;3.50;2.80;;;0.70;99.90;;;;;;4970800;28;20411;-59
2022/01/10 01:40:49;;;;;;;4.40;3.30;;;0.70;99.90;;;;;;4969374;28;20422;-60
2022/01/10 01:43:15;;;;;;;4.53;3.57;;;0.70;99.90;;;;;;4968469;28;20963;-59
2022/01/10 01:45:45;;;;;;;3.60;3.10;;;0.70;99.90;;;;;;4967128;28;20687;-59
2022/01/10 01:48:12;;;;;;;4.87;3.30;;;0.70;99.90;;;;;;4967612;28;20189;-59
2022/01/10 01:50:38;;;;;;;6.27;3.77;;;0.70;99.90;;;;;;4968726;28;20741;-60
2022/01/10 01:53:05;;;;;;;5.53;3.67;;;0.60;99.90;;;;;;4967876;28;20482;-60
2022/01/10 01:55:31;;;;;;;4.20;3.80;;;0.60;99.90;;;;;;4969280;28;20416;-61
2022/01/10 01:57:57;;;;;;;4.97;3.70;;;0.70;99.90;;;;;;4966512;28;20452;-58
2022/01/10 02:00:24;;;;;;;3.67;3.10;;;0.70;99.90;;;;;;4967731;28;20185;-60
2022/01/10 02:02:51;;;;;;;5.53;3.67;;;0.70;99.90;;;;;;4966572;28;20837;-60
2022/01/10 02:05:16;;;;;;;4.70;3.40;;;0.70;99.90;;;;;;4965083;28;20475;-60
2022/01/10 02:07:42;;;;;;;5.50;3.20;;;0.70;99.90;;;;;;4968075;28;20454;-60
2022/01/10 02:10:08;;;;;;;2.50;2.30;;;0.70;99.90;;;;;;4965517;28;20611;-60
2022/01/10 02:12:34;;;;;;;2.40;2.20;;;0.70;99.90;;;;;;4967022;28;20202;-59
2022/01/10 02:15:00;;;;;;;3.63;2.40;;;0.80;99.90;;;;;;4964254;28;20720;-59
2022/01/10 02:17:34;;;;;;;4.27;3.03;;;0.80;99.90;;;;;;4966385;28;20234;-58
2022/01/10 02:20:01;;;;;;;5.03;2.57;;;0.80;99.90;;;;;;4966388;28;20246;-60
2022/01/10 02:22:27;;;;;;;2.90;2.60;;;0.80;99.90;;;;;;4968820;28;20489;-60
2022/01/10 02:24:53;;;;;;;8.73;3.20;;;0.80;99.90;;;;;;4964353;28;21164;-61
2022/01/10 02:27:23;;;;;;;7.47;3.53;;;0.80;99.90;;;;;;4968775;28;20428;-60
2022/01/10 02:29:50;;;;;;;5.43;3.73;;;0.80;99.90;;;;;;4967510;28;20489;-61
2022/01/10 02:32:16;;;;;;;5.37;4.03;;;0.80;99.90;;;;;;4966057;28;20506;-60
2022/01/10 02:34:42;;;;;;;5.40;3.43;;;0.80;99.90;;;;;;4966579;28;20436;-60
2022/01/10 02:37:07;;;;;;;5.00;3.57;;;0.70;99.90;;;;;;4966294;28;20438;-59
2022/01/10 02:39:33;;;;;;;4.70;3.50;;;0.80;99.90;;;;;;4969273;28;20234;-61
2022/01/10 02:41:59;;;;;;;5.53;4.07;;;0.70;99.90;;;;;;4966395;28;20254;-60
2022/01/10 02:44:25;;;;;;;6.10;4.40;;;0.70;99.90;;;;;;4964666;28;20485;-60
2022/01/10 02:46:50;;;;;;;9.10;5.13;;;0.80;99.90;;;;;;4967289;28;20186;-60
2022/01/10 02:49:24;;;;;;;8.40;5.30;;;0.70;99.90;;;;;;4966681;28;20176;-60
2022/01/10 02:51:50;;;;;;;9.77;5.50;;;0.70;99.90;;;;;;4965906;28;20286;-60
2022/01/10 02:54:15;;;;;;;10.07;5.47;;;0.80;99.90;;;;;;4989888;28;20522;-61
2022/01/10 02:56:45;;;;;;;8.67;5.20;;;0.80;99.90;;;;;;4964877;28;20213;-61
2022/01/10 02:59:11;;;;;;;6.77;5.20;;;0.80;99.90;;;;;;4965569;28;20188;-60
2022/01/10 03:01:37;;;;;;;8.57;5.80;;;0.70;99.90;;;;;;4967488;28;20840;-62
2022/01/10 03:04:02;;;;;;;13.77;6.63;;;0.80;99.90;;;;;;4965610;28;20264;-58
2022/01/10 03:06:28;;;;;;;10.77;6.90;;;0.70;99.90;;;;;;4962270;28;20184;-60
2022/01/10 03:08:54;;;;;;;15.00;6.10;;;0.80;99.90;;;;;;4965286;28;20188;-61
2022/01/10 03:11:19;;;;;;;11.23;5.60;;;0.70;99.90;;;;;;4964076;28;20586;-59
2022/01/10 03:13:45;;;;;;;8.30;5.67;;;0.70;99.90;;;;;;4969638;28;20207;-60
2022/01/10 03:16:10;;;;;;;7.00;5.20;;;0.70;99.90;;;;;;4984701;28;20620;-61
2022/01/10 03:18:36;;;;;;;8.33;5.90;;;0.70;99.90;;;;;;4969254;28;20187;-60
2022/01/10 03:21:02;;;;;;;7.97;5.63;;;0.70;99.90;;;;;;4969071;28;20260;-60
2022/01/10 03:23:28;;;;;;;7.50;5.30;;;0.70;99.90;;;;;;4966666;28;20517;-61
2022/01/10 03:25:53;;;;;;;9.37;5.33;;;0.70;99.90;;;;;;4968127;28;20841;-60
2022/01/10 03:28:20;;;;;;;7.67;4.93;;;0.70;99.90;;;;;;4969563;28;20180;-61
2022/01/10 03:30:46;;;;;;;7.13;5.03;;;0.70;99.90;;;;;;4968189;28;20174;-59
2022/01/10 03:33:11;;;;;;;8.17;5.40;;;0.70;99.90;;;;;;4968156;28;20505;-61
2022/01/10 03:35:38;;;;;;;7.83;5.10;;;0.70;99.90;;;;;;4967746;28;20668;-61
2022/01/10 03:38:04;;;;;;;7.97;4.57;;;0.70;99.90;;;;;;4967993;28;20188;-61
2022/01/10 03:40:30;;;;;;;7.90;5.23;;;0.70;99.90;;;;;;4966561;28;20439;-60
2022/01/10 03:42:55;;;;;;;8.27;4.90;;;0.70;99.90;;;;;;4968713;28;20464;-60
2022/01/10 03:45:21;;;;;;;8.57;4.57;;;0.70;99.90;;;;;;4969141;28;20828;-60
2022/01/10 03:47:47;;;;;;;7.03;5.20;;;0.70;99.90;;;;;;4968574;28;20534;-60
2022/01/10 03:50:12;;;;;;;9.70;4.77;;;0.70;99.90;;;;;;4967774;28;20570;-60
2022/01/10 03:52:38;;;;;;;6.00;4.50;;;0.70;99.90;;;;;;4967940;28;20707;-61
2022/01/10 03:55:04;;;;;;;5.70;4.57;;;0.70;99.90;;;;;;4968437;28;20211;-60
2022/01/10 03:57:30;;;;;;;8.10;5.20;;;0.70;99.90;;;;;;4967966;28;20189;-60
2022/01/10 03:59:56;;;;;;;6.33;4.53;;;0.70;99.90;;;;;;4966684;28;20446;-59
2022/01/10 04:02:22;;;;;;;6.37;4.00;;;0.70;99.90;;;;;;4969372;28;20699;-60
2022/01/10 04:04:48;;;;;;;8.77;4.60;;;0.70;99.90;;;;;;4968370;28;20206;-60
2022/01/10 04:07:16;;;;;;;8.30;4.20;;;0.70;99.90;;;;;;4969832;28;20826;-60
2022/01/10 04:09:42;;;;;;;9.03;5.90;;;0.70;99.90;;;;;;4967627;28;20207;-60
2022/01/10 04:12:08;;;;;;;11.87;5.53;;;0.70;99.90;;;;;;4968415;28;20604;-59
2022/01/10 04:14:34;;;;;;;8.77;5.70;;;0.70;99.90;;;;;;4968357;28;20270;-60
2022/01/10 04:17:02;;;;;;;8.60;5.80;;;0.70;99.90;;;;;;4967802;28;20270;-60
2022/01/10 04:19:27;;;;;;;12.87;6.30;;;0.70;99.90;;;;;;4967379;28;20182;-60
2022/01/10 04:21:53;;;;;;;14.70;6.53;;;0.60;99.90;;;;;;4966637;28;20451;-60
2022/01/10 04:24:18;;;;;;;14.73;7.27;;;0.60;99.90;;;;;;4966401;28;20212;-60
2022/01/10 04:26:44;;;;;;;17.67;8.50;;;0.70;99.90;;;;;;4966973;28;20184;-60
2022/01/10 04:29:10;;;;;;;14.90;6.93;;;0.70;99.90;;;;;;4968531;28;20191;-59
2022/01/10 04:31:36;;;;;;;15.17;7.77;;;0.70;99.90;;;;;;4968034;28;20188;-61
2022/01/10 04:34:01;;;;;;;15.20;6.97;;;0.70;99.90;;;;;;4966909;28;20266;-60
2022/01/10 04:36:27;;;;;;;12.07;6.83;;;0.60;99.90;;;;;;4967955;28;20199;-60
2022/01/10 04:38:53;;;;;;;16.30;7.13;;;0.60;99.90;;;;;;4968087;28;20267;-60
2022/01/10 04:41:19;;;;;;;11.97;6.60;;;0.60;99.90;;;;;;4966475;28;20378;-60
2022/01/10 04:43:45;;;;;;;12.20;6.70;;;0.60;99.90;;;;;;4966948;28;20201;-59
2022/01/10 04:46:11;;;;;;;11.70;7.17;;;0.50;99.90;;;;;;4967309;28;20478;-60
2022/01/10 04:48:36;;;;;;;11.43;6.10;;;0.50;99.90;;;;;;4967853;28;20810;-66
2022/01/10 04:51:35;;;;;;;10.80;6.00;;;0.50;99.90;;;;;;4966721;28;20180;-58
2022/01/10 04:53:55;;;;;;;11.20;6.37;;;0.50;99.90;;;;;;4959502;28;20200;-58
2022/01/10 04:56:21;;;;;;;15.47;6.33;;;0.50;99.90;;;;;;4959800;28;20550;-55
2022/01/10 04:58:48;;;;;;;9.77;6.37;;;0.60;99.90;;;;;;4959535;28;20443;-58
2022/01/10 05:01:15;;;;;;;11.30;5.73;;;0.50;99.90;;;;;;4960263;28;20457;-59
2022/01/10 05:03:40;;;;;;;9.80;6.20;;;0.60;99.90;;;;;;4961978;28;20511;-60
2022/01/10 05:06:06;;;;;;;12.30;6.80;;;0.60;99.90;;;;;;4961933;28;20968;-59
2022/01/10 05:08:32;;;;;;;12.50;6.87;;;0.60;99.90;;;;;;4962490;28;20518;-60
2022/01/10 05:10:59;;;;;;;10.40;5.80;;;0.60;99.90;;;;;;4962503;28;20407;-60
2022/01/10 05:13:25;;;;;;;11.30;7.20;;;0.60;99.90;;;;;;4961876;28;20521;-61
2022/01/10 05:15:51;;;;;;;40.20;21.23;;;0.60;99.90;;;;;;4963880;28;20464;-62
2022/01/10 05:18:22;;;;;;;27.83;12.47;;;0.60;99.90;;;;;;4960202;28;20442;-61
2022/01/10 05:20:48;;;;;;;15.70;9.20;;;0.60;99.90;;;;;;4964272;28;21588;-60
2022/01/10 05:23:14;;;;;;;13.20;7.00;;;0.60;99.90;;;;;;4965777;28;20463;-61
2022/01/10 05:25:40;;;;;;;10.50;6.30;;;0.60;99.90;;;;;;4964431;28;20487;-61
2022/01/10 05:28:11;;;;;;;10.07;5.83;;;0.60;99.90;;;;;;4964218;28;20199;-60
2022/01/10 05:30:38;;;;;;;21.03;10.93;;;0.60;99.90;;;;;;4962472;28;20424;-61
2022/01/10 05:33:05;;;;;;;15.17;8.93;;;0.60;99.90;;;;;;4964742;28;22519;-61
2022/01/10 05:35:31;;;;;;;13.80;8.60;;;0.70;99.90;;;;;;4959374;28;20531;-62
2022/01/10 05:37:57;;;;;;;15.00;8.13;;;0.60;99.90;;;;;;4974809;28;20519;-62
2022/01/10 05:40:23;;;;;;;14.03;7.80;;;0.60;99.90;;;;;;4963958;28;20274;-61
2022/01/10 05:42:48;;;;;;;14.67;8.00;;;0.60;99.90;;;;;;4965847;28;20216;-60
2022/01/10 05:45:14;;;;;;;14.40;8.53;;;0.60;99.90;;;;;;4967079;28;20222;-60
2022/01/10 05:47:42;;;;;;;11.23;7.93;;;0.60;99.90;;;;;;4980390;28;20186;-60
2022/01/10 05:50:11;;;;;;;14.03;8.40;;;0.60;99.90;;;;;;4968673;28;20447;-59
2022/01/10 05:52:37;;;;;;;10.80;7.27;;;0.60;99.90;;;;;;4968424;28;20531;-60
2022/01/10 05:55:04;;;;;;;14.30;7.53;;;0.60;99.90;;;;;;4973900;28;20509;-60
2022/01/10 05:57:30;;;;;;;18.50;7.37;;;0.50;99.90;;;;;;4973187;28;20970;-60
2022/01/10 05:59:55;;;;;;;14.83;8.53;;;0.60;99.90;;;;;;4973672;28;20529;-57
2022/01/10 06:02:21;;;;;;;22.30;10.60;;;0.60;99.90;;;;;;4967759;28;20204;-60
2022/01/10 06:04:47;;;;;;;27.13;11.67;;;0.60;99.90;;;;;;4962307;28;20307;-60
2022/01/10 06:07:13;;;;;;;24.57;10.63;;;0.50;99.90;;;;;;4964359;28;20947;-60
2022/01/10 06:09:39;;;;;;;20.03;9.43;;;0.60;99.90;;;;;;4968810;28;20278;-60
2022/01/10 06:12:05;;;;;;;19.57;10.10;;;0.60;99.90;;;;;;4969864;28;20532;-60
2022/01/10 06:14:30;;;;;;;19.50;9.33;;;0.60;99.90;;;;;;4969656;28;20179;-61
2022/01/10 06:16:56;;;;;;;16.80;9.00;;;0.60;99.90;;;;;;4984355;28;20913;-60
2022/01/10 06:19:22;;;;;;;10.93;6.50;;;0.50;99.90;;;;;;4955026;28;20248;-61
2022/01/10 06:21:47;;;;;;;14.40;6.63;;;0.50;99.90;;;;;;4967126;28;20208;-60
2022/01/10 06:24:13;;;;;;;14.73;6.73;;;0.50;99.90;;;;;;4966975;28;20202;-60
2022/01/10 06:26:39;;;;;;;11.07;6.60;;;0.50;99.90;;;;;;4969454;28;20168;-61
2022/01/10 06:29:04;;;;;;;12.77;6.77;;;0.50;99.90;;;;;;4970779;28;20169;-61
2022/01/10 06:31:30;;;;;;;13.63;6.80;;;0.50;99.90;;;;;;4972234;28;20188;-58
2022/01/10 06:33:56;;;;;;;11.00;6.20;;;0.50;99.90;;;;;;4990427;28;20538;-60
2022/01/10 06:36:22;;;;;;;12.53;6.97;;;0.50;99.90;;;;;;4957383;28;20187;-60
2022/01/10 06:38:47;;;;;;;13.83;6.47;;;0.50;99.90;;;;;;4951561;28;20511;-60
2022/01/10 06:41:13;;;;;;;14.70;7.50;;;0.50;99.90;;;;;;4951280;28;20447;-60
2022/01/10 06:43:39;;;;;;;15.00;7.97;;;0.50;99.90;;;;;;4951638;28;20285;-60
2022/01/10 06:46:05;;;;;;;15.63;7.23;;;0.50;99.90;;;;;;4971390;28;20191;-60
2022/01/10 06:48:31;;;;;;;12.53;6.30;;;0.50;99.90;;;;;;4968578;28;21247;-61
2022/01/10 06:50:56;;;;;;;13.87;6.27;;;0.50;99.90;;;;;;4969850;28;20420;-59
2022/01/10 06:53:23;;;;;;;17.97;7.13;;;0.50;99.90;;;;;;4970589;28;20713;-59
2022/01/10 06:55:48;;;;;;;16.17;7.50;;;0.50;99.90;;;;;;4973918;28;20242;-58
2022/01/10 06:58:14;;;;;;;16.30;8.80;;;0.50;99.90;;;;;;4971013;28;20928;-60
2022/01/10 07:00:42;;;;;;;23.73;10.20;;;0.50;99.90;;;;;;4974679;28;20423;-60
2022/01/10 07:03:07;;;;;;;22.30;12.00;;;0.50;99.90;;;;;;4980552;28;20334;-60
2022/01/10 07:05:33;;;;;;;20.10;10.73;;;0.50;99.90;;;;;;4983462;28;20547;-60
2022/01/10 07:07:59;;;;;;;24.20;10.67;;;0.60;99.90;;;;;;4972049;28;20740;-60
2022/01/10 07:10:24;;;;;;;21.07;9.53;;;0.60;99.90;;;;;;4957546;28;20652;-58
2022/01/10 07:12:50;;;;;;;23.30;9.67;;;0.60;99.90;;;;;;4959562;28;20282;-60
2022/01/10 07:15:16;;;;;;;18.40;9.90;;;0.60;99.90;;;;;;4966603;28;20370;-59
2022/01/10 07:17:42;;;;;;;21.13;9.53;;;0.60;99.90;;;;;;5001670;28;20433;-60
2022/01/10 07:20:08;;;;;;;23.87;10.53;;;0.60;99.90;;;;;;4995031;28;20443;-59
2022/01/10 07:22:33;;;;;;;20.30;9.93;;;0.60;99.90;;;;;;4974368;28;20211;-60
2022/01/10 07:24:59;;;;;;;19.90;10.10;;;0.60;99.90;;;;;;4972259;28;20461;-59
2022/01/10 07:27:25;;;;;;;16.90;9.33;;;0.60;99.90;;;;;;4972627;28;20282;-61
2022/01/10 07:29:51;;;;;;;19.27;10.67;;;0.70;99.90;;;;;;4975204;28;20188;-60
2022/01/10 07:32:17;;;;;;;21.60;12.20;;;0.70;99.90;;;;;;4972126;28;20719;-60
2022/01/10 07:34:43;;;;;;;35.50;12.97;;;0.70;99.90;;;;;;4953977;28;20543;-59
2022/01/10 07:37:09;;;;;;;26.10;12.80;;;0.70;99.90;;;;;;4969486;28;21086;-60
2022/01/10 07:39:35;;;;;;;33.97;14.37;;;0.70;99.90;;;;;;4973014;28;20498;-60
2022/01/10 07:42:01;;;;;;;26.00;13.37;;;0.70;99.90;;;;;;4955524;28;20200;-60
2022/01/10 07:44:27;;;;;;;22.43;12.37;;;0.70;99.90;;;;;;4979364;28;20204;-59
2022/01/10 07:46:55;;;;;;;30.50;14.53;;;0.70;99.90;;;;;;4993570;28;20176;-60
2022/01/10 07:49:21;;;;;;;25.03;11.63;;;0.70;99.90;;;;;;4984266;28;20247;-58
2022/01/10 07:51:46;;;;;;;29.63;13.00;;;0.70;99.90;;;;;;4959364;28;20448;-60
2022/01/10 07:54:12;;;;;;;18.70;8.53;;;0.80;99.90;;;;;;4972117;28;20849;-59
2022/01/10 07:56:38;;;;;;;16.20;8.13;;;0.80;99.90;;;;;;4972735;28;20255;-60
2022/01/10 07:59:04;;;;;;;15.80;8.97;;;0.80;99.90;;;;;;4960128;28;20454;-60
2022/01/10 08:01:29;;;;;;;15.00;8.17;;;0.80;99.90;;;;;;4957575;28;20627;-60
2022/01/10 08:03:55;;;;;;;10.73;6.90;;;0.80;99.90;;;;;;4963410;28;20286;-58
2022/01/10 08:06:22;;;;;;;11.60;6.80;;;0.80;99.90;;;;;;4972725;28;20188;-60
2022/01/10 08:08:48;;;;;;;9.93;6.60;;;0.80;99.90;;;;;;4973026;28;20190;-59
2022/01/10 08:11:13;;;;;;;13.63;6.80;;;0.70;99.90;;;;;;4972378;28;20852;-60
2022/01/10 08:13:41;;;;;;;12.17;7.10;;;0.70;99.90;;;;;;4972523;28;20210;-59
2022/01/10 08:16:07;;;;;;;12.40;7.27;;;0.70;99.90;;;;;;4968476;28;20183;-61
2022/01/10 08:18:34;;;;;;;13.10;7.50;;;0.70;99.90;;;;;;4965647;28;20421;-57
2022/01/10 08:21:00;;;;;;;15.27;7.30;;;0.70;99.90;;;;;;4972597;28;20427;-60
2022/01/10 08:23:26;;;;;;;13.07;7.30;;;0.70;99.90;;;;;;4968966;28;20500;-58
2022/01/10 08:25:51;;;;;;;14.80;7.30;;;0.80;99.90;;;;;;4967942;28;20411;-60
2022/01/10 08:28:17;;;;;;;13.20;7.80;;;0.80;99.90;;;;;;4971822;28;20188;-59
2022/01/10 08:30:43;;;;;;;21.00;7.80;;;0.90;99.90;;;;;;4978701;28;20184;-60
2022/01/10 08:33:08;;;;;;;18.10;9.90;;;0.90;99.90;;;;;;4953515;28;20209;-58
2022/01/10 08:35:34;;;;;;;23.27;9.23;;;0.90;99.90;;;;;;4971471;28;20587;-60
2022/01/10 08:38:00;;;;;;;21.77;9.80;;;1.00;99.90;;;;;;4973644;28;20184;-60
2022/01/10 08:40:25;;;;;;;19.53;9.30;;;1.00;99.90;;;;;;4969531;28;20193;-60
2022/01/10 08:42:51;;;;;;;25.40;9.47;;;1.10;99.90;;;;;;4972105;28;20599;-60
2022/01/10 08:45:17;;;;;;;19.20;8.67;;;1.10;99.90;;;;;;4973687;28;20295;-60
2022/01/10 08:47:43;;;;;;;17.60;7.97;;;1.10;99.90;;;;;;4970245;28;20175;-59
2022/01/10 08:50:10;;;;;;;15.73;8.43;;;1.10;99.90;;;;;;4967396;28;20210;-60
2022/01/10 08:52:37;;;;;;;25.60;10.30;;;1.10;99.90;;;;;;4957531;28;20684;-60
2022/01/10 08:55:04;;;;;;;19.07;8.83;;;1.10;99.90;;;;;;4971858;28;20501;-58
2022/01/10 08:57:30;;;;;;;16.23;9.97;;;1.20;99.90;;;;;;4970736;28;20424;-59
2022/01/10 08:59:55;;;;;;;16.80;9.40;;;1.20;99.90;;;;;;4972725;28;20461;-59
2022/01/10 09:02:21;;;;;;;20.20;10.43;;;1.30;99.90;;;;;;4970866;28;20576;-60
2022/01/10 09:04:47;;;;;;;19.30;10.23;;;1.30;99.90;;;;;;4969569;28;20205;-60
2022/01/10 09:07:13;;;;;;;20.87;10.40;;;1.40;99.90;;;;;;4972541;28;20279;-60
2022/01/10 09:09:39;;;;;;;18.17;9.60;;;1.40;99.90;;;;;;4952055;28;20418;-60
2022/01/10 09:12:05;;;;;;;21.40;10.27;;;1.50;99.90;;;;;;4952714;28;20707;-59
2022/01/10 09:14:31;;;;;;;18.20;10.00;;;1.50;99.90;;;;;;4956449;28;20799;-60
2022/01/10 09:16:56;;;;;;;21.00;11.47;;;1.60;99.90;;;;;;4972181;28;20425;-59
2022/01/10 09:19:22;;;;;;;24.53;11.07;;;1.60;99.90;;;;;;4972401;28;20179;-60
2022/01/10 09:21:49;;;;;;;16.77;9.10;;;1.70;99.90;;;;;;4967035;28;20290;-60
2022/01/10 09:24:14;;;;;;;18.63;10.40;;;1.60;99.90;;;;;;4972103;28;20459;-60
2022/01/10 09:26:40;;;;;;;17.07;9.50;;;1.60;99.90;;;;;;4970852;28;20530;-59
2022/01/10 09:29:06;;;;;;;16.93;9.33;;;1.60;99.90;;;;;;4970996;28;20647;-58
2022/01/10 09:31:33;;;;;;;21.93;10.97;;;1.60;99.90;;;;;;4955345;28;20187;-60
2022/01/10 09:33:59;;;;;;;23.70;10.63;;;1.60;99.90;;;;;;4963544;28;20248;-58
2022/01/10 09:36:27;;;;;;;19.37;9.53;;;1.60;99.90;;;;;;4969954;28;20424;-60
2022/01/10 09:38:55;;;;;;;21.90;10.90;;;1.60;99.90;;;;;;4968976;28;20405;-59
2022/01/10 09:41:21;;;;;;;23.50;11.33;;;1.70;99.90;;;;;;4952586;28;20501;-59
2022/01/10 09:43:50;;;;;;;18.37;10.60;;;1.70;99.90;;;;;;4952280;28;20551;-60
2022/01/10 09:46:17;;;;;;;21.63;11.70;;;1.80;99.90;;;;;;4981815;28;20468;-60
2022/01/10 09:48:42;;;;;;;18.13;10.53;;;1.80;99.90;;;;;;4967919;28;20431;-60
2022/01/10 09:51:09;;;;;;;23.67;11.93;;;1.90;99.90;;;;;;4970301;28;20464;-59
2022/01/10 09:53:35;;;;;;;21.40;12.00;;;1.90;99.90;;;;;;4971389;28;20649;-58
2022/01/10 09:56:01;;;;;;;22.50;10.60;;;1.90;99.90;;;;;;4970289;28;20805;-60
2022/01/10 09:58:27;;;;;;;17.93;10.07;;;1.90;99.90;;;;;;4967782;28;20956;-60
2022/01/10 10:00:57;;;;;;;20.07;11.53;;;1.90;99.90;;;;;;4971202;28;20543;-60
2022/01/10 10:03:23;;;;;;;19.40;11.07;;;2.00;99.90;;;;;;4971017;28;20693;-59
2022/01/10 10:05:57;;;;;;;21.20;9.70;;;2.00;99.90;;;;;;4970877;28;20409;-60
2022/01/10 10:08:25;;;;;;;19.13;9.87;;;2.00;99.90;;;;;;4953558;28;20438;-59
2022/01/10 10:10:52;;;;;;;17.60;9.63;;;2.10;99.90;;;;;;4963288;28;20935;-58
2022/01/10 10:13:18;;;;;;;19.00;9.37;;;2.10;99.90;;;;;;4970963;28;20524;-58
2022/01/10 10:15:45;;;;;;;22.77;10.43;;;2.10;99.90;;;;;;4968163;28;20511;-60
2022/01/10 10:18:13;;;;;;;19.93;9.97;;;2.20;99.90;;;;;;4951644;28;20410;-60
2022/01/10 10:20:43;;;;;;;21.23;10.30;;;2.20;99.90;;;;;;4954241;28;20417;-59
2022/01/10 10:23:15;;;;;;;19.80;10.60;;;2.20;99.90;;;;;;4970712;28;20479;-59
2022/01/10 10:25:51;;;;;;;21.80;10.63;;;2.30;99.90;;;;;;4968057;28;20641;-60
2022/01/10 10:28:17;;;;;;;22.80;11.47;;;2.30;99.90;;;;;;4984319;28;20732;-59
2022/01/10 10:30:43;;;;;;;23.03;11.60;;;2.30;99.90;;;;;;4985173;28;20466;-57
2022/01/10 10:33:17;;;;;;;19.17;10.13;;;2.20;99.90;;;;;;4980202;28;20220;-61
2022/01/10 10:35:44;;;;;;;18.30;10.40;;;2.20;99.90;;;;;;4956900;28;20230;-60
2022/01/10 10:38:11;;;;;;;21.40;11.10;;;2.20;99.90;;;;;;4973127;28;20428;-61
2022/01/10 10:40:44;;;;;;;21.00;10.73;;;2.20;99.90;;;;;;4983659;28;20436;-61
2022/01/10 10:43:11;;;;;;;22.50;10.13;;;2.30;99.90;;;;;;4967173;28;20487;-61
2022/01/10 10:45:38;;;;;;;15.67;9.30;;;2.30;99.90;;;;;;4983736;28;20953;-60
2022/01/10 10:48:07;;;;;;;18.47;10.20;;;2.30;99.90;;;;;;4980886;28;20429;-60
2022/01/10 10:50:41;;;;;;;18.17;10.67;;;2.30;99.90;;;;;;4960568;28;20513;-59
2022/01/10 10:53:09;;;;;;;19.73;9.73;;;2.40;99.90;;;;;;4959344;28;20476;-60
2022/01/10 10:55:38;;;;;;;17.23;8.87;;;2.40;99.90;;;;;;4968361;28;20928;-61
2022/01/10 10:58:04;;;;;;;20.40;8.20;;;2.40;99.90;;;;;;4964484;28;20456;-61
2022/01/10 11:00:29;;;;;;;17.40;8.17;;;2.40;99.90;;;;;;4972331;28;20440;-61
2022/01/10 11:02:55;;;;;;;15.63;8.97;;;2.40;99.90;;;;;;4972373;28;20453;-61
2022/01/10 11:05:21;;;;;;;12.47;6.97;;;2.50;99.90;;;;;;4969796;28;20572;-59
2022/01/10 11:07:47;;;;;;;13.17;6.60;;;2.50;99.90;;;;;;4968088;28;20182;-61
2022/01/10 11:10:13;;;;;;;16.40;8.10;;;2.50;99.90;;;;;;4974068;28;20236;-61
2022/01/10 11:12:44;;;;;;;16.57;7.63;;;2.60;99.90;;;;;;4970946;28;20469;-61
2022/01/10 11:15:10;;;;;;;16.60;7.17;;;2.70;99.90;;;;;;4964774;28;20545;-60
2022/01/10 11:17:40;;;;;;;14.23;6.80;;;2.80;99.90;;;;;;4964346;28;20425;-60
2022/01/10 11:20:08;;;;;;;10.20;5.13;;;2.90;99.90;;;;;;4977172;28;20405;-60
2022/01/10 11:22:36;;;;;;;11.60;6.23;;;2.90;99.90;;;;;;4968120;28;20448;-61
2022/01/10 11:25:03;;;;;;;9.33;5.90;;;3.00;99.90;;;;;;4963665;28;20486;-61
2022/01/10 11:27:36;;;;;;;8.13;5.50;;;3.10;99.90;;;;;;4975657;28;20825;-61
2022/01/10 11:30:33;;;;;;;8.27;4.60;;;3.10;99.90;;;;;;4970337;28;21145;-61
2022/01/10 11:33:08;;;;;;;6.77;4.90;;;3.20;99.90;;;;;;4971100;28;20495;-61
2022/01/10 11:35:37;;;;;;;9.37;4.30;;;3.30;99.90;;;;;;4973131;28;20440;-60
2022/01/10 11:38:46;;;;;;;7.57;4.10;;;3.30;99.90;;;;;;4968654;28;20443;-60
2022/01/10 11:41:16;;;;;;;9.57;4.23;;;3.30;99.90;;;;;;4966599;28;20932;-60
2022/01/10 11:43:49;;;;;;;9.60;3.87;;;3.30;99.90;;;;;;4969599;28;20461;-59
2022/01/10 11:46:18;;;;;;;5.10;4.27;;;3.40;99.90;;;;;;4971870;28;20779;-62
2022/01/10 11:48:45;;;;;;;7.90;4.60;;;3.40;99.90;;;;;;4972675;28;20491;-62
2022/01/10 11:51:16;;;;;;;9.20;5.60;;;3.40;99.90;;;;;;4972532;28;20432;-61
2022/01/10 11:53:46;;;;;;;8.27;4.67;;;3.50;99.90;;;;;;4979576;28;21012;-62
2022/01/10 11:56:40;;;;;;;20.90;4.20;;;3.50;99.90;;;;;;4976944;28;20429;-62
2022/01/10 11:59:08;;;;;;;9.00;4.50;;;3.40;99.90;;;;;;4954956;28;20442;-62
2022/01/10 12:01:36;;;;;;;11.23;6.60;;;3.40;99.90;;;;;;4976889;28;20971;-62
2022/01/10 12:04:02;;;;;;;11.00;7.23;;;3.20;99.90;;;;;;4971256;28;20511;-59
2022/01/10 12:06:28;;;;;;;12.20;7.47;;;3.20;99.90;;;;;;4972204;28;20436;-60
2022/01/10 12:09:00;;;;;;;12.40;6.97;;;3.10;99.90;;;;;;4970270;28;20436;-61
2022/01/10 12:11:27;;;;;;;9.87;6.40;;;3.10;99.90;;;;;;4975030;28;20462;-61
2022/01/10 12:13:55;;;;;;;18.57;7.97;;;3.00;99.90;;;;;;4969487;28;20714;-62
2022/01/10 12:16:22;;;;;;;10.90;6.20;;;3.00;99.90;;;;;;4969749;28;20451;-64
2022/01/10 12:18:51;;;;;;;13.50;6.77;;;3.10;99.90;;;;;;4971855;28;20451;-60
2022/01/10 12:21:17;;;;;;;8.27;6.23;;;3.00;99.90;;;;;;4972828;28;20440;-60
2022/01/10 12:23:43;;;;;;;12.13;5.60;;;3.10;99.90;;;;;;4970166;28;20963;-61
2022/01/10 12:26:09;;;;;;;8.57;5.40;;;3.20;99.90;;;;;;4964492;28;20212;-59
2022/01/10 12:28:37;;;;;;;11.73;6.50;;;3.20;99.90;;;;;;4975203;28;20916;-58
2022/01/10 12:31:04;;;;;;;18.30;6.20;;;3.10;99.90;;;;;;4970692;28;20440;-61
2022/01/10 12:33:29;;;;;;;14.00;5.97;;;3.00;99.90;;;;;;4966411;28;20813;-61
2022/01/10 12:35:55;;;;;;;9.03;5.60;;;3.00;99.90;;;;;;4971465;28;20417;-60
2022/01/10 12:38:22;;;;;;;14.90;5.33;;;3.00;99.90;;;;;;4972379;28;20296;-59
2022/01/10 12:40:54;;;;;;;11.80;4.87;;;3.00;99.90;;;;;;4979353;28;20662;-59
2022/01/10 12:43:20;;;;;;;9.23;4.30;;;3.00;99.90;;;;;;4967085;28;20518;-61
2022/01/10 12:45:47;;;;;;;11.33;4.87;;;3.20;99.90;;;;;;4968662;28;20449;-61
2022/01/10 12:48:14;;;;;;;7.60;4.73;;;3.30;99.90;;;;;;4968950;28;20432;-61
2022/01/10 12:50:41;;;;;;;12.30;5.00;;;3.40;99.90;;;;;;4968995;28;20508;-60
2022/01/10 12:53:07;;;;;;;8.90;6.30;;;3.50;99.90;;;;;;4977628;28;20452;-59